createdAt,value
2022-09-23T00:02:15.090Z,99.27
2022-09-23T00:05:16.953Z,99.10
2022-09-23T00:08:18.720Z,100.00
2022-09-23T00:11:28.575Z,100.00
2022-09-23T00:14:30.157Z,99.51
2022-09-23T00:17:32.680Z,99.71
2022-09-23T00:20:36.689Z,98.44
2022-09-23T00:23:40.722Z,97.75
2022-09-23T00:26:42.703Z,99.25
2022-09-23T00:29:44.427Z,97.44
2022-09-23T00:32:46.178Z,98.56
2022-09-23T00:35:48.129Z,99.88
2022-09-23T00:38:49.869Z,100.00
2022-09-23T00:41:52.405Z,100.00
2022-09-23T00:44:56.618Z,100.00
2022-09-23T00:48:02.211Z,100.00
2022-09-23T00:51:05.375Z,99.51
2022-09-23T00:54:07.951Z,99.27
2022-09-23T00:57:11.293Z,100.00
2022-09-23T01:00:13.759Z,100.00
2022-09-23T01:03:15.475Z,100.00
2022-09-23T01:06:17.405Z,100.00
2022-09-23T01:09:20.071Z,100.00
2022-09-23T01:12:39.666Z,100.00
2022-09-23T01:15:50.015Z,100.00
2022-09-23T01:19:22.182Z,100.00
2022-09-23T01:22:47.535Z,100.00
2022-09-23T01:26:29.832Z,100.00
2022-09-23T01:29:43.144Z,100.00
2022-09-23T01:33:14.365Z,100.00
2022-09-23T01:36:27.947Z,100.00
2022-09-23T01:39:37.809Z,100.00
2022-09-23T01:42:44.963Z,100.00
2022-09-23T01:45:48.555Z,100.00
2022-09-23T01:48:59.500Z,100.00
2022-09-23T01:52:15.691Z,100.00
2022-09-23T01:55:27.583Z,100.00
2022-09-23T01:58:42.149Z,100.00
2022-09-23T02:02:01.618Z,100.00
2022-09-23T02:05:19.911Z,100.00
2022-09-23T02:08:27.573Z,100.00
2022-09-23T02:11:29.189Z,100.00
2022-09-23T02:14:38.818Z,100.00
2022-09-23T02:17:52.030Z,100.00
2022-09-23T02:20:58.611Z,100.00
2022-09-23T02:24:27.528Z,100.00
2022-09-23T02:27:45.871Z,100.00
2022-09-23T02:30:57.791Z,100.00
2022-09-23T02:34:24.565Z,100.00
2022-09-23T02:37:37.318Z,100.00
2022-09-23T02:40:41.437Z,100.00
2022-09-23T02:43:54.175Z,100.00
2022-09-23T02:46:57.981Z,100.00
2022-09-23T02:50:00.011Z,100.00
2022-09-23T02:53:02.502Z,100.00
2022-09-23T02:56:22.039Z,100.00
2022-09-23T02:59:24.748Z,100.00
2022-09-23T03:02:41.899Z,100.00
2022-09-23T03:05:55.102Z,100.00
2022-09-23T03:09:05.720Z,100.00
2022-09-23T03:12:32.529Z,100.00
2022-09-23T03:16:00.139Z,100.00
2022-09-23T03:19:17.182Z,100.00
2022-09-23T03:22:41.042Z,100.00
2022-09-23T03:25:47.277Z,100.00
2022-09-23T03:28:50.424Z,100.00
2022-09-23T03:31:53.475Z,100.00
2022-09-23T03:34:58.487Z,100.00
2022-09-23T03:38:08.513Z,100.00
2022-09-23T03:41:16.769Z,100.00
2022-09-23T03:44:19.754Z,100.00
2022-09-23T03:47:21.919Z,100.00
2022-09-23T03:50:24.450Z,100.00
2022-09-23T03:53:26.158Z,100.00
2022-09-23T03:56:27.998Z,100.00
2022-09-23T03:59:32.996Z,100.00
2022-09-23T04:02:34.902Z,100.00
2022-09-23T04:05:36.741Z,100.00
2022-09-23T04:08:38.595Z,100.00
2022-09-23T04:11:40.544Z,100.00
2022-09-23T04:14:42.851Z,100.00
2022-09-23T04:17:44.514Z,100.00
2022-09-23T04:20:46.433Z,100.00
2022-09-23T04:23:50.684Z,100.00
2022-09-23T04:26:54.116Z,100.00
2022-09-23T04:29:55.731Z,100.00
2022-09-23T04:32:57.474Z,100.00
2022-09-23T04:35:59.586Z,100.00
2022-09-23T04:39:01.578Z,100.00
2022-09-23T04:42:04.435Z,100.00
2022-09-23T04:45:06.677Z,100.00
2022-09-23T04:48:09.622Z,100.00
2022-09-23T04:51:14.783Z,100.00
2022-09-23T04:54:16.609Z,100.00
2022-09-23T04:57:18.165Z,100.00
2022-09-23T05:00:19.941Z,100.00
2022-09-23T05:03:21.846Z,100.00
2022-09-23T05:06:25.169Z,100.00
2022-09-23T05:09:26.961Z,100.00
2022-09-23T05:12:28.897Z,100.00
2022-09-23T05:15:30.489Z,100.00
2022-09-23T05:18:35.528Z,100.00
2022-09-23T05:21:38.147Z,100.00
2022-09-23T05:24:46.241Z,100.00
2022-09-23T05:27:52.917Z,100.00
2022-09-23T05:31:02.947Z,100.00
2022-09-23T05:34:05.476Z,100.00
2022-09-23T05:37:07.271Z,100.00
2022-09-23T05:40:09.392Z,100.00
2022-09-23T05:43:11.252Z,100.00
2022-09-23T05:46:15.814Z,99.67
2022-09-23T05:49:17.656Z,97.01
2022-09-23T05:52:21.753Z,97.35
2022-09-23T05:55:23.536Z,98.19
2022-09-23T05:58:25.529Z,98.46
2022-09-23T06:01:32.172Z,97.67
2022-09-23T06:04:33.867Z,97.67
2022-09-23T06:07:35.682Z,97.42
2022-09-23T06:10:42.229Z,97.80
2022-09-23T06:13:46.585Z,96.84
2022-09-23T06:20:22.707Z,97.63
2022-09-23T06:23:26.518Z,97.39
2022-09-23T06:26:35.161Z,96.03
2022-09-23T06:29:40.128Z,96.89
2022-09-23T06:32:47.788Z,97.77
2022-09-23T06:35:58.014Z,97.22
2022-09-23T06:39:02.581Z,96.82
2022-09-23T06:42:06.839Z,95.86
2022-09-23T06:45:13.037Z,94.31
2022-09-23T06:48:14.850Z,91.62
2022-09-23T06:51:19.362Z,91.23
2022-09-23T06:54:21.320Z,88.82
2022-09-23T06:57:32.213Z,89.08
2022-09-23T07:00:34.123Z,89.23
2022-09-23T07:03:36.626Z,88.64
2022-09-23T07:06:39.460Z,86.68
2022-09-23T07:09:41.228Z,84.78
2022-09-23T07:12:43.060Z,86.66
2022-09-23T07:15:58.468Z,84.00
2022-09-23T07:19:00.410Z,82.48
2022-09-23T07:22:02.531Z,81.29
2022-09-23T07:25:06.043Z,78.59
2022-09-23T07:28:08.261Z,71.46
2022-09-23T07:31:12.977Z,69.99
2022-09-23T07:34:14.939Z,70.21
2022-09-23T07:37:17.920Z,71.79
2022-09-23T07:40:19.617Z,74.72
2022-09-23T07:43:22.360Z,75.58
2022-09-23T07:46:24.004Z,71.80
2022-09-23T07:49:27.530Z,67.85
2022-09-23T07:52:29.108Z,67.00
2022-09-23T07:55:30.874Z,71.64
2022-09-23T07:58:33.960Z,73.65
2022-09-23T08:01:42.743Z,70.53
2022-09-23T08:04:44.697Z,72.50
2022-09-23T08:07:46.504Z,65.33
2022-09-23T08:10:48.089Z,56.93
2022-09-23T08:13:49.935Z,48.42
2022-09-23T08:16:52.405Z,44.94
2022-09-23T08:19:54.208Z,40.81
2022-09-23T08:22:55.955Z,39.32
2022-09-23T08:26:00.145Z,35.87
2022-09-23T08:29:02.223Z,34.36
2022-09-23T08:32:04.024Z,34.70
2022-09-23T08:35:06.090Z,33.38
2022-09-23T08:38:08.161Z,30.76
2022-09-23T08:41:21.855Z,31.75
2022-09-23T08:44:42.711Z,31.22
2022-09-23T08:47:49.151Z,30.55
2022-09-23T08:50:59.803Z,30.66
2022-09-23T08:54:01.945Z,36.12
2022-09-23T08:57:05.684Z,37.24
2022-09-23T09:00:14.345Z,35.63
2022-09-23T09:03:48.226Z,33.96
2022-09-23T09:07:31.767Z,35.10
2022-09-23T09:10:33.433Z,31.14
2022-09-23T09:13:43.416Z,28.06
2022-09-23T09:17:00.117Z,27.30
2022-09-23T09:20:06.438Z,30.51
2022-09-23T09:23:07.924Z,27.92
2022-09-23T09:26:19.720Z,25.01
2022-09-23T09:29:35.903Z,23.24
2022-09-23T09:33:07.024Z,23.77
2022-09-23T09:36:30.867Z,23.20
2022-09-23T09:39:36.488Z,23.78
2022-09-23T09:42:40.577Z,22.97
2022-09-23T09:45:57.696Z,21.84
2022-09-23T09:49:11.479Z,21.86
2022-09-23T09:52:28.800Z,22.15
2022-09-23T09:55:30.613Z,24.54
2022-09-23T09:58:44.004Z,26.12
2022-09-23T10:01:48.745Z,32.69
2022-09-23T10:04:57.008Z,33.33
2022-09-23T10:08:36.994Z,37.13
2022-09-23T10:11:40.555Z,39.35
2022-09-23T10:14:43.459Z,40.82
2022-09-23T10:17:50.593Z,42.86
2022-09-23T10:20:52.136Z,46.08
2022-09-23T10:23:58.176Z,47.02
2022-09-23T10:27:12.087Z,47.31
2022-09-23T10:30:21.832Z,48.35
2022-09-23T10:33:27.924Z,48.63
2022-09-23T10:36:32.804Z,49.14
2022-09-23T10:39:52.837Z,47.71
2022-09-23T10:43:38.185Z,48.67
2022-09-23T10:47:25.760Z,47.78
2022-09-23T10:50:49.064Z,47.02
2022-09-23T10:54:27.299Z,50.89
2022-09-23T10:58:00.663Z,47.47
2022-09-23T11:01:27.450Z,47.16
2022-09-23T11:04:52.606Z,49.88
2022-09-23T11:08:10.640Z,47.37
2022-09-23T11:11:34.109Z,46.61
2022-09-23T11:14:58.820Z,47.19
2022-09-23T11:18:45.942Z,47.21
2022-09-23T11:22:02.491Z,46.61
2022-09-23T11:25:25.659Z,48.86
2022-09-23T11:28:40.202Z,47.62
2022-09-23T11:31:52.552Z,48.92
2022-09-23T11:35:12.145Z,48.45
2022-09-23T11:38:26.107Z,47.44
2022-09-23T11:41:36.498Z,47.17
2022-09-23T11:44:49.965Z,47.33
2022-09-23T11:48:26.107Z,45.46
2022-09-23T11:52:01.598Z,45.58
2022-09-23T11:55:22.943Z,46.56
2022-09-23T11:58:31.535Z,45.78
2022-09-23T12:01:41.104Z,46.19
2022-09-23T12:05:08.147Z,44.56
2022-09-23T12:08:23.620Z,45.71
2022-09-23T12:11:51.025Z,45.06
2022-09-23T12:15:13.543Z,44.85
2022-09-23T12:18:30.455Z,42.63
2022-09-23T12:22:06.024Z,44.53
2022-09-23T12:25:35.688Z,43.83
2022-09-23T12:28:41.498Z,46.13
2022-09-23T12:31:46.702Z,45.32
2022-09-23T12:34:52.018Z,45.73
2022-09-23T12:37:54.621Z,46.04
2022-09-23T12:40:56.798Z,46.02
2022-09-23T12:44:12.463Z,45.24
2022-09-23T12:47:26.370Z,45.70
2022-09-23T12:54:22.543Z,47.31
2022-09-23T12:57:33.469Z,48.16
2022-09-23T13:00:35.467Z,48.22
2022-09-23T13:04:04.459Z,48.32
2022-09-23T13:07:09.429Z,48.07
2022-09-23T13:10:29.159Z,49.52
2022-09-23T13:14:00.508Z,50.45
2022-09-23T13:17:02.121Z,51.08
2022-09-23T13:20:36.550Z,49.42
2022-09-23T13:23:38.444Z,49.32
2022-09-23T13:26:45.714Z,49.89
2022-09-23T13:29:59.436Z,50.88
2022-09-23T13:33:14.099Z,51.10
2022-09-23T13:36:20.118Z,51.66
2022-09-23T13:39:27.995Z,42.11
2022-09-23T13:42:30.520Z,37.91
2022-09-23T13:45:38.235Z,31.67
2022-09-23T13:48:43.350Z,28.62
2022-09-23T13:51:45.488Z,27.31
2022-09-23T13:54:50.048Z,25.82
2022-09-23T13:58:05.284Z,26.81
2022-09-23T14:01:34.958Z,30.41
2022-09-23T14:04:36.817Z,35.94
2022-09-23T14:07:38.699Z,36.81
2022-09-23T14:10:42.986Z,37.76
2022-09-23T14:13:47.166Z,40.73
2022-09-23T14:16:51.207Z,42.06
2022-09-23T14:19:52.973Z,41.39
2022-09-23T14:23:10.846Z,41.58
2022-09-23T14:26:12.481Z,42.54
2022-09-23T14:29:20.118Z,44.47
2022-09-23T14:32:25.956Z,45.08
2022-09-23T14:35:42.346Z,46.51
2022-09-23T14:38:53.024Z,47.39
2022-09-23T14:41:54.970Z,46.08
2022-09-23T14:44:56.794Z,47.30
2022-09-23T14:48:01.464Z,46.08
2022-09-23T14:51:08.666Z,50.04
2022-09-23T14:54:26.618Z,47.29
2022-09-23T14:57:32.199Z,47.14
2022-09-23T15:00:33.882Z,49.50
2022-09-23T15:03:47.811Z,49.49
2022-09-23T15:06:54.103Z,51.55
2022-09-23T15:09:55.940Z,49.02
2022-09-23T15:13:07.530Z,52.69
2022-09-23T15:16:09.494Z,52.08
2022-09-23T15:19:19.274Z,50.39
2022-09-23T15:22:21.266Z,52.97
2022-09-23T15:25:33.882Z,54.50
2022-09-23T15:28:35.615Z,52.72
2022-09-23T15:31:37.718Z,53.48
2022-09-23T15:34:39.482Z,52.22
2022-09-23T15:37:43.112Z,53.75
2022-09-23T15:40:44.795Z,55.31
2022-09-23T15:43:47.336Z,55.26
2022-09-23T15:46:51.956Z,55.66
2022-09-23T15:49:53.897Z,54.56
2022-09-23T15:52:55.776Z,56.32
2022-09-23T15:55:58.793Z,56.96
2022-09-23T15:59:00.941Z,57.23
2022-09-23T16:02:08.048Z,57.02
2022-09-23T16:05:36.751Z,63.74
2022-09-23T16:08:39.168Z,65.62
2022-09-23T16:11:46.163Z,66.69
2022-09-23T16:14:47.878Z,67.54
2022-09-23T16:17:50.530Z,68.91
2022-09-23T16:20:52.469Z,69.67
2022-09-23T16:23:57.597Z,69.12
2022-09-23T16:27:04.164Z,69.79
2022-09-23T16:30:07.124Z,71.12
2022-09-23T16:33:08.893Z,72.46
2022-09-23T16:36:31.182Z,73.18
2022-09-23T16:39:33.145Z,72.90
2022-09-23T16:42:35.189Z,72.60
2022-09-23T16:45:36.910Z,72.65
2022-09-23T16:48:40.640Z,72.22
2022-09-23T16:51:42.546Z,72.52
2022-09-23T16:54:45.191Z,72.64
2022-09-23T16:57:46.908Z,72.47
2022-09-23T17:01:07.291Z,72.97
2022-09-23T17:04:10.636Z,72.85
2022-09-23T17:07:12.849Z,73.55
2022-09-23T17:10:15.203Z,73.16
2022-09-23T17:13:17.418Z,72.77
2022-09-23T17:16:31.565Z,73.33
2022-09-23T17:19:34.662Z,73.60
2022-09-23T17:22:36.233Z,74.65
2022-09-23T17:25:38.032Z,75.29
2022-09-23T17:28:39.583Z,76.50
2022-09-23T17:31:41.389Z,77.61
2022-09-23T17:34:44.102Z,77.68
2022-09-23T17:37:47.674Z,78.49
2022-09-23T17:40:54.525Z,78.85
2022-09-23T17:43:58.440Z,79.75
2022-09-23T17:47:00.754Z,80.53
2022-09-23T17:50:02.363Z,79.95
2022-09-23T17:53:05.197Z,80.89
2022-09-23T17:56:19.088Z,80.66
2022-09-23T17:59:21.605Z,81.43
2022-09-23T18:02:23.576Z,81.08
2022-09-23T18:05:25.411Z,81.52
2022-09-23T18:08:30.643Z,81.87
2022-09-23T18:11:35.838Z,82.17
2022-09-23T18:14:37.399Z,83.02
2022-09-23T18:17:39.204Z,82.76
2022-09-23T18:20:40.991Z,82.39
2022-09-23T18:23:42.583Z,80.96
2022-09-23T18:26:46.156Z,80.72
2022-09-23T18:29:47.996Z,80.35
2022-09-23T18:32:50.062Z,80.34
2022-09-23T18:35:54.516Z,79.88
2022-09-23T18:38:56.808Z,79.39
2022-09-23T18:41:58.468Z,81.63
2022-09-23T18:45:00.089Z,80.89
2022-09-23T18:48:21.128Z,80.83
2022-09-23T18:51:25.767Z,82.35
2022-09-23T18:54:28.925Z,80.96
2022-09-23T18:57:30.675Z,82.46
2022-09-23T19:00:32.315Z,82.55
2022-09-23T19:03:36.074Z,82.56
2022-09-23T19:06:38.029Z,82.95
2022-09-23T19:09:39.807Z,82.78
2022-09-23T19:12:41.576Z,82.94
2022-09-23T19:15:43.466Z,83.34
2022-09-23T19:18:48.681Z,84.53
2022-09-23T19:21:50.304Z,85.83
2022-09-23T19:24:52.132Z,86.96
2022-09-23T19:27:53.930Z,86.63
2022-09-23T19:30:56.183Z,89.15
2022-09-23T19:34:00.599Z,88.13
2022-09-23T19:37:04.576Z,88.82
2022-09-23T19:40:07.278Z,88.51
2022-09-23T19:43:09.056Z,87.90
2022-09-23T19:46:10.775Z,86.96
2022-09-23T19:49:13.026Z,87.14
2022-09-23T19:52:14.913Z,87.17
2022-09-23T19:55:16.765Z,86.69
2022-09-23T19:58:18.399Z,86.10
2022-09-23T20:01:22.248Z,85.49
2022-09-23T20:04:24.110Z,87.37
2022-09-23T20:07:25.955Z,86.88
2022-09-23T20:10:27.536Z,88.14
2022-09-23T20:13:29.221Z,90.28
2022-09-23T20:16:32.987Z,90.60
2022-09-23T20:19:34.864Z,91.26
2022-09-23T20:22:37.019Z,93.09
2022-09-23T20:25:57.313Z,92.62
2022-09-23T20:29:02.381Z,92.90
2022-09-23T20:32:04.829Z,93.50
2022-09-23T20:35:07.429Z,91.60
2022-09-23T20:38:09.620Z,90.63
2022-09-23T20:41:11.549Z,90.66
2022-09-23T20:44:13.915Z,91.55
2022-09-23T20:47:17.922Z,90.49
2022-09-23T20:50:19.543Z,88.16
2022-09-23T20:53:23.287Z,86.85
2022-09-23T20:56:25.344Z,86.60
2022-09-23T20:59:27.576Z,86.40
2022-09-23T21:02:29.563Z,86.33
2022-09-23T21:05:31.157Z,86.88
2022-09-23T21:08:34.756Z,87.09
2022-09-23T21:11:36.324Z,87.04
2022-09-23T21:14:38.043Z,86.03
2022-09-23T21:17:39.610Z,85.62
2022-09-23T21:20:42.198Z,86.13
2022-09-23T21:23:44.139Z,85.23
2022-09-23T21:26:47.411Z,86.23
2022-09-23T21:29:49.110Z,86.12
2022-09-23T21:32:50.860Z,89.82
2022-09-23T21:35:56.843Z,90.38
2022-09-23T21:39:01.990Z,91.31
2022-09-23T21:42:04.052Z,89.19
2022-09-23T21:45:06.744Z,89.08
2022-09-23T21:48:08.294Z,89.04
2022-09-23T21:51:14.134Z,88.16
2022-09-23T21:54:16.975Z,88.72
2022-09-23T21:57:18.556Z,88.51
2022-09-23T22:00:20.366Z,87.73
2022-09-23T22:03:22.350Z,88.42
2022-09-23T22:06:27.169Z,89.77
2022-09-23T22:09:28.976Z,90.18
2022-09-23T22:12:30.851Z,91.56
2022-09-23T22:15:36.905Z,96.13
2022-09-23T22:18:38.480Z,98.06
2022-09-23T22:21:42.282Z,98.08
2022-09-23T22:24:46.182Z,98.27
2022-09-23T22:28:07.052Z,98.53
2022-09-23T22:31:27.530Z,97.02
2022-09-23T22:34:48.522Z,96.56
2022-09-23T22:37:50.976Z,97.58
2022-09-23T22:40:53.335Z,98.13
2022-09-23T22:43:55.829Z,98.86
2022-09-23T22:46:59.240Z,98.93
2022-09-23T22:50:01.963Z,98.22
2022-09-23T22:53:04.162Z,98.17
2022-09-23T22:56:06.086Z,97.47
2022-09-23T22:59:10.212Z,98.67
2022-09-23T23:02:12.090Z,99.90
2022-09-23T23:05:14.905Z,99.01
2022-09-23T23:08:17.575Z,99.18
2022-09-23T23:11:19.233Z,96.87
2022-09-23T23:14:21.826Z,97.44
2022-09-23T23:17:23.845Z,96.91
2022-09-23T23:20:26.011Z,94.65
2022-09-23T23:23:27.818Z,95.28
2022-09-23T23:26:31.038Z,95.84
2022-09-23T23:29:32.908Z,96.44
2022-09-23T23:32:34.838Z,96.58
2022-09-23T23:35:36.400Z,97.10
2022-09-23T23:38:40.362Z,97.63
2022-09-23T23:41:43.808Z,97.41
2022-09-23T23:44:45.664Z,98.57
2022-09-23T23:47:47.637Z,99.85
2022-09-23T23:50:58.214Z,98.91
2022-09-23T23:54:00.056Z,99.06
2022-09-23T23:57:01.812Z,97.68
